Time;durP1;ratioP1;P1;durP2;ratioP2;P2;SDS_P1;SDS_P2;PMS_P1;PMS_P2;Temp;Humidity;BMP_temperature;BMP_pressure;BME280_temperature;BME280_humidity;BME280_pressure;Samples;Min_cycle;Max_cycle;Signal;HPM_P1;HPM_P2
2022/05/24 00:00:46;;;;;;;40.00;35.10;;;14.60;99.90;;;;;;5087377;28;20803;-66
2022/05/24 00:03:13;;;;;;;42.10;34.00;;;14.60;99.90;;;;;;5076237;28;20545;-65
2022/05/24 00:05:40;;;;;;;41.50;34.60;;;14.60;99.90;;;;;;5079555;28;20489;-64
2022/05/24 00:08:08;;;;;;;46.87;35.43;;;14.60;99.90;;;;;;5084580;28;20485;-65
2022/05/24 00:10:36;;;;;;;45.23;35.90;;;14.50;99.90;;;;;;5076787;28;20467;-65
2022/05/24 00:13:04;;;;;;;37.03;33.23;;;14.60;99.90;;;;;;5090059;28;20461;-66
2022/05/24 00:15:33;;;;;;;40.93;36.43;;;14.50;99.90;;;;;;5083906;28;20458;-65
2022/05/24 00:18:05;;;;;;;38.43;34.00;;;14.50;99.90;;;;;;5080865;28;20574;-65
2022/05/24 00:20:35;;;;;;;39.87;34.87;;;14.60;99.90;;;;;;5080609;28;20555;-64
2022/05/24 00:23:03;;;;;;;41.30;34.80;;;14.50;99.90;;;;;;5073708;28;20459;-65
2022/05/24 00:25:33;;;;;;;38.20;34.10;;;14.50;99.90;;;;;;5087704;28;20472;-64
2022/05/24 00:28:02;;;;;;;40.97;34.97;;;14.60;99.90;;;;;;5085972;28;20463;-65
2022/05/24 00:30:29;;;;;;;43.73;35.70;;;14.60;99.90;;;;;;5082534;28;20469;-66
2022/05/24 00:32:56;;;;;;;37.80;33.77;;;14.60;99.90;;;;;;5082522;28;20462;-65
2022/05/24 00:35:26;;;;;;;37.17;33.17;;;14.60;99.90;;;;;;5084031;28;20474;-65
2022/05/24 00:37:53;;;;;;;40.50;35.47;;;14.60;99.90;;;;;;5078546;28;20492;-66
2022/05/24 00:40:32;;;;;;;36.20;32.30;;;14.60;99.90;;;;;;5086154;28;20466;-66
2022/05/24 00:43:00;;;;;;;47.07;33.67;;;14.50;99.90;;;;;;5079417;28;20472;-65
2022/05/24 00:45:33;;;;;;;42.23;32.97;;;14.60;99.90;;;;;;5081675;28;20550;-65
2022/05/24 00:48:04;;;;;;;40.00;32.17;;;14.60;99.90;;;;;;5073788;28;20528;-65
2022/05/24 00:50:36;;;;;;;37.80;33.37;;;14.60;99.90;;;;;;5077380;28;20475;-65
2022/05/24 00:53:07;;;;;;;41.70;33.93;;;14.60;99.90;;;;;;5081813;28;20753;-65
2022/05/24 00:55:43;;;;;;;41.90;32.97;;;14.50;99.90;;;;;;5085212;28;20462;-65
2022/05/24 00:58:17;;;;;;;44.93;32.00;;;14.50;99.90;;;;;;5082426;28;20489;-65
2022/05/24 01:00:45;;;;;;;39.60;31.80;;;14.60;99.90;;;;;;5076343;28;20821;-65
2022/05/24 01:03:14;;;;;;;42.73;29.30;;;14.60;99.90;;;;;;5082423;28;20466;-66
2022/05/24 01:05:43;;;;;;;38.13;30.50;;;14.60;99.90;;;;;;5081011;28;20463;-66
2022/05/24 01:08:11;;;;;;;36.37;28.00;;;14.50;99.90;;;;;;5071042;28;20969;-65
2022/05/24 01:10:43;;;;;;;39.90;28.87;;;14.50;99.90;;;;;;5082030;28;20458;-66
2022/05/24 01:13:15;;;;;;;29.47;23.83;;;14.40;99.90;;;;;;5082576;28;20634;-66
2022/05/24 01:15:44;;;;;;;38.57;25.03;;;14.40;99.90;;;;;;5072420;28;20463;-65
2022/05/24 01:18:12;;;;;;;33.73;24.20;;;14.30;99.90;;;;;;5075112;28;20486;-65
2022/05/24 01:20:41;;;;;;;32.27;22.93;;;14.20;99.90;;;;;;5082615;28;20455;-66
2022/05/24 01:23:28;;;;;;;27.80;22.90;;;14.20;99.90;;;;;;5074501;28;20461;-65
2022/05/24 01:26:02;;;;;;;30.07;22.57;;;14.10;99.90;;;;;;5080740;28;20960;-66
2022/05/24 01:28:35;;;;;;;26.07;20.63;;;14.00;99.90;;;;;;5079151;28;20470;-66
2022/05/24 01:31:03;;;;;;;28.90;21.90;;;13.90;99.90;;;;;;5079088;28;20489;-65
2022/05/24 01:36:17;;;;;;;25.03;19.70;;;13.80;99.90;;;;;;5077934;28;20615;-65
2022/05/24 01:38:48;;;;;;;28.07;21.83;;;13.80;99.90;;;;;;5078160;28;20459;-64
2022/05/24 01:41:21;;;;;;;24.73;20.23;;;13.70;99.90;;;;;;5083672;28;20549;-65
2022/05/24 01:43:53;;;;;;;26.20;19.07;;;13.70;99.90;;;;;;5080146;28;20462;-65
2022/05/24 01:46:23;;;;;;;27.83;20.53;;;13.70;99.90;;;;;;5074576;28;20466;-65
2022/05/24 01:48:53;;;;;;;21.90;19.40;;;13.70;99.90;;;;;;5075719;28;20960;-66
2022/05/24 01:51:25;;;;;;;26.40;19.80;;;13.70;99.90;;;;;;5079031;28;20462;-65
2022/05/24 01:53:57;;;;;;;23.43;19.20;;;13.70;99.90;;;;;;5075543;28;20463;-66
2022/05/24 01:56:30;;;;;;;24.33;18.43;;;13.60;99.90;;;;;;5072073;28;20466;-64
2022/05/24 01:59:02;;;;;;;24.27;18.10;;;13.60;99.90;;;;;;5079481;28;20456;-66
2022/05/24 02:01:40;;;;;;;20.47;18.00;;;13.60;99.90;;;;;;5081144;28;20461;-69
2022/05/24 02:04:07;;;;;;;19.27;16.80;;;13.60;99.90;;;;;;5077871;28;20481;-67
2022/05/24 02:06:35;;;;;;;22.83;18.00;;;13.50;99.90;;;;;;5076398;28;20493;-67
2022/05/24 02:09:03;;;;;;;20.70;16.67;;;13.40;99.90;;;;;;5080703;28;20952;-66
2022/05/24 02:11:32;;;;;;;21.53;16.47;;;13.30;99.90;;;;;;5076508;28;20816;-68
2022/05/24 02:14:07;;;;;;;26.70;18.23;;;13.30;99.90;;;;;;5073445;28;20466;-68
2022/05/24 02:16:38;;;;;;;21.10;15.87;;;13.20;99.90;;;;;;5080082;28;21495;-68
2022/05/24 02:19:07;;;;;;;20.20;15.67;;;13.10;99.90;;;;;;5077204;28;20459;-68
2022/05/24 02:21:33;;;;;;;22.43;17.50;;;13.10;99.90;;;;;;5079762;28;20996;-69
2022/05/24 02:24:01;;;;;;;17.97;16.07;;;13.00;99.90;;;;;;5075538;28;20462;-68
2022/05/24 02:26:30;;;;;;;22.07;15.33;;;13.00;99.90;;;;;;5075350;28;20828;-68
2022/05/24 02:28:59;;;;;;;20.60;15.67;;;12.90;99.90;;;;;;5083058;28;20549;-69
2022/05/24 02:31:27;;;;;;;18.40;15.80;;;12.90;99.90;;;;;;5078558;28;20458;-69
2022/05/24 02:33:54;;;;;;;19.50;15.40;;;12.90;99.90;;;;;;5078077;28;20974;-68
2022/05/24 02:36:21;;;;;;;24.27;14.90;;;12.90;99.90;;;;;;5077899;28;20546;-67
2022/05/24 02:38:48;;;;;;;14.77;13.13;;;12.90;99.90;;;;;;5077233;28;20474;-68
2022/05/24 02:41:31;;;;;;;18.40;15.27;;;12.90;99.90;;;;;;5071623;28;20538;-68
2022/05/24 02:43:59;;;;;;;15.77;13.63;;;12.90;99.90;;;;;;5079996;28;20543;-68
2022/05/24 02:46:27;;;;;;;25.07;14.47;;;12.90;99.90;;;;;;5079421;28;20473;-70
2022/05/24 02:48:56;;;;;;;20.20;14.10;;;12.80;99.90;;;;;;5074252;28;20462;-69
2022/05/24 02:51:24;;;;;;;16.50;13.73;;;12.80;99.90;;;;;;5081095;28;20461;-67
2022/05/24 02:53:52;;;;;;;17.00;14.47;;;12.90;99.90;;;;;;5079167;28;20839;-69
2022/05/24 02:56:19;;;;;;;18.30;13.43;;;12.90;99.90;;;;;;5077145;28;20497;-68
2022/05/24 02:58:47;;;;;;;14.67;13.20;;;12.80;99.90;;;;;;5074673;28;20485;-68
2022/05/24 03:01:18;;;;;;;16.43;14.67;;;12.90;99.90;;;;;;5071827;28;20494;-68
2022/05/24 03:03:47;;;;;;;17.83;13.67;;;12.90;99.90;;;;;;5079955;28;20470;-68
2022/05/24 03:06:15;;;;;;;19.00;13.93;;;12.90;99.90;;;;;;5078821;28;20546;-70
2022/05/24 03:14:14;;;;;;;18.10;13.47;;;12.90;99.90;;;;;;5078582;28;20448;-69
2022/05/24 03:14:14;;;;;;;20.80;13.10;;;12.90;99.90;;;;;;5086410;28;20449;-68
2022/05/24 03:16:46;;;;;;;15.47;12.93;;;12.80;99.90;;;;;;5082043;28;20466;-68
2022/05/24 03:19:16;;;;;;;28.53;12.50;;;12.90;99.90;;;;;;5078740;28;20552;-68
2022/05/24 03:21:44;;;;;;;17.10;12.60;;;12.90;99.90;;;;;;5081668;28;20488;-68
2022/05/24 03:24:11;;;;;;;22.90;12.87;;;12.90;99.90;;;;;;5083813;28;20476;-69
2022/05/24 03:26:38;;;;;;;15.77;11.97;;;12.90;99.90;;;;;;5074499;28;20461;-67
2022/05/24 03:29:06;;;;;;;23.23;13.37;;;12.90;99.90;;;;;;5082041;28;20477;-68
2022/05/24 03:31:33;;;;;;;18.67;12.63;;;13.00;99.90;;;;;;5076694;28;20867;-68
2022/05/24 03:34:00;;;;;;;14.53;11.43;;;13.00;99.90;;;;;;5078171;28;20535;-68
2022/05/24 03:36:29;;;;;;;13.27;11.20;;;13.00;99.90;;;;;;5084468;28;20473;-68
2022/05/24 03:38:56;;;;;;;12.90;10.33;;;13.00;99.90;;;;;;5076463;28;20509;-68
2022/05/24 03:41:23;;;;;;;15.70;10.60;;;13.00;99.90;;;;;;5083288;28;20898;-69
2022/05/24 03:43:50;;;;;;;11.33;9.90;;;13.00;99.90;;;;;;5083328;28;20458;-69
2022/05/24 03:46:18;;;;;;;11.57;9.53;;;13.00;99.90;;;;;;5077917;28;20465;-68
2022/05/24 03:48:45;;;;;;;17.53;10.43;;;13.00;99.90;;;;;;5082039;28;20454;-69
2022/05/24 03:51:12;;;;;;;14.23;11.20;;;13.10;99.90;;;;;;5080640;28;20564;-69
2022/05/24 03:53:40;;;;;;;11.70;10.00;;;13.10;99.90;;;;;;5082541;28;20568;-69
2022/05/24 03:56:07;;;;;;;11.67;10.57;;;13.10;99.90;;;;;;5082317;28;20498;-69
2022/05/24 03:58:35;;;;;;;13.97;9.77;;;13.20;99.90;;;;;;5070863;28;21048;-68
2022/05/24 04:01:02;;;;;;;13.13;9.67;;;13.20;99.90;;;;;;5071295;28;20984;-70
2022/05/24 04:03:29;;;;;;;10.80;9.50;;;13.10;99.90;;;;;;5053906;28;20466;-68
2022/05/24 04:05:56;;;;;;;14.60;9.60;;;13.10;99.90;;;;;;5049973;28;20463;-69
2022/05/24 04:08:26;;;;;;;10.93;8.43;;;13.10;99.90;;;;;;5048906;28;20462;-70
2022/05/24 04:11:02;;;;;;;17.60;9.00;;;13.10;99.90;;;;;;5049189;28;20573;-68
2022/05/24 04:13:29;;;;;;;9.40;8.60;;;13.00;99.90;;;;;;5050782;28;20786;-69
2022/05/24 04:15:56;;;;;;;11.03;9.00;;;13.10;99.90;;;;;;5050444;28;20462;-68
2022/05/24 04:18:23;;;;;;;16.53;8.80;;;13.10;99.90;;;;;;5050785;28;20489;-69
2022/05/24 04:20:50;;;;;;;9.30;8.50;;;13.10;99.90;;;;;;5051058;28;21001;-69
2022/05/24 04:23:19;;;;;;;9.83;8.83;;;13.10;99.90;;;;;;5048564;28;20462;-69
2022/05/24 04:25:47;;;;;;;10.27;9.30;;;13.00;99.90;;;;;;5049619;28;20471;-67
2022/05/24 04:28:18;;;;;;;9.97;8.90;;;13.00;99.90;;;;;;5050634;28;20453;-69
2022/05/24 04:30:46;;;;;;;14.37;9.30;;;13.10;99.90;;;;;;5051649;28;20467;-70
2022/05/24 04:33:13;;;;;;;10.67;9.73;;;13.00;99.90;;;;;;5050389;28;20462;-68
2022/05/24 04:35:40;;;;;;;11.13;10.50;;;13.10;99.90;;;;;;5049097;28;20467;-69
2022/05/24 04:38:07;;;;;;;13.27;12.00;;;13.00;99.90;;;;;;5053539;28;20538;-69
2022/05/24 04:43:20;;;;;;;16.67;14.07;;;12.90;99.90;;;;;;5052532;28;20466;-68
2022/05/24 04:45:47;;;;;;;16.33;14.20;;;12.80;99.90;;;;;;5049912;28;20494;-69
2022/05/24 04:48:15;;;;;;;15.27;13.97;;;12.80;99.90;;;;;;5050134;28;20472;-67
2022/05/24 04:50:42;;;;;;;16.20;14.77;;;12.70;99.90;;;;;;5050370;28;20459;-67
2022/05/24 04:53:09;;;;;;;15.40;14.50;;;12.70;99.90;;;;;;5048911;28;20540;-66
2022/05/24 04:55:36;;;;;;;16.53;15.30;;;12.60;99.90;;;;;;5050075;28;20949;-68
2022/05/24 04:58:03;;;;;;;16.27;14.70;;;12.50;99.90;;;;;;5049577;28;20494;-68
2022/05/24 05:00:31;;;;;;;16.80;15.10;;;12.40;99.90;;;;;;5050092;28;20474;-66
2022/05/24 05:02:57;;;;;;;16.73;15.57;;;12.40;99.90;;;;;;5049286;28;20467;-67
2022/05/24 05:05:24;;;;;;;17.90;16.43;;;12.40;99.90;;;;;;5048862;28;20803;-67
2022/05/24 05:07:51;;;;;;;18.60;17.03;;;12.30;99.90;;;;;;5048966;28;20568;-67
2022/05/24 05:10:18;;;;;;;19.47;17.63;;;12.30;99.90;;;;;;5050478;28;20478;-68
2022/05/24 05:12:46;;;;;;;19.23;18.03;;;12.30;99.90;;;;;;5047904;28;20811;-67
2022/05/24 05:15:14;;;;;;;18.57;17.33;;;12.20;99.90;;;;;;5049053;28;20466;-67
2022/05/24 05:17:42;;;;;;;17.17;16.27;;;12.10;99.90;;;;;;5049368;28;20481;-68
2022/05/24 05:20:11;;;;;;;20.63;18.80;;;12.10;99.90;;;;;;5047944;28;20478;-68
2022/05/24 05:22:38;;;;;;;23.07;20.47;;;12.00;99.90;;;;;;5049952;28;20470;-68
2022/05/24 05:25:07;;;;;;;22.43;20.97;;;11.90;99.90;;;;;;5049429;28;20455;-67
2022/05/24 05:27:34;;;;;;;21.10;19.57;;;11.90;99.90;;;;;;5049013;28;20479;-67
2022/05/24 05:32:50;;;;;;;20.97;18.93;;;11.70;99.90;;;;;;5046306;28;20500;-68
2022/05/24 05:35:18;;;;;;;20.20;18.40;;;11.70;99.90;;;;;;5046549;28;20771;-69
2022/05/24 05:37:45;;;;;;;18.73;17.50;;;11.80;99.90;;;;;;5047348;28;20471;-68
2022/05/24 05:40:13;;;;;;;18.60;17.40;;;11.60;99.90;;;;;;5046730;28;20478;-68
2022/05/24 05:42:40;;;;;;;18.20;17.10;;;11.70;99.90;;;;;;5048029;28;20466;-68
2022/05/24 05:45:10;;;;;;;17.90;16.63;;;11.60;99.90;;;;;;5047243;28;20979;-69
2022/05/24 05:47:37;;;;;;;18.90;17.20;;;11.60;99.90;;;;;;5048408;28;21056;-68
2022/05/24 05:50:07;;;;;;;18.43;16.87;;;11.70;99.90;;;;;;5047682;28;20466;-67
2022/05/24 05:52:34;;;;;;;17.23;16.13;;;11.70;99.90;;;;;;5048276;28;20949;-67
2022/05/24 05:55:01;;;;;;;18.10;16.50;;;11.50;99.90;;;;;;5049335;28;22376;-67
2022/05/24 05:57:28;;;;;;;18.33;16.83;;;11.60;99.90;;;;;;5048194;28;20477;-67
2022/05/24 05:59:55;;;;;;;17.43;16.00;;;11.60;99.90;;;;;;5048886;28;20493;-67
2022/05/24 06:02:22;;;;;;;17.20;15.90;;;11.70;99.90;;;;;;5062261;28;20482;-67
2022/05/24 06:04:49;;;;;;;17.67;16.10;;;11.70;99.90;;;;;;5071740;28;20473;-67
2022/05/24 06:07:17;;;;;;;17.10;15.97;;;11.70;99.90;;;;;;5070553;28;20482;-68
2022/05/24 06:09:44;;;;;;;15.73;14.87;;;11.80;99.90;;;;;;5043432;28;20463;-68
2022/05/24 06:12:12;;;;;;;17.07;16.07;;;11.70;99.90;;;;;;5043506;28;20501;-68
2022/05/24 06:14:39;;;;;;;16.47;15.37;;;11.80;99.90;;;;;;5063730;28;20458;-69
2022/05/24 06:17:06;;;;;;;16.57;15.47;;;11.80;99.90;;;;;;5045022;28;20785;-68
2022/05/24 06:19:33;;;;;;;17.00;15.70;;;11.90;99.90;;;;;;5045073;28;20506;-67
2022/05/24 06:22:00;;;;;;;18.93;17.10;;;11.80;99.90;;;;;;5043805;28;20521;-66
2022/05/24 06:24:28;;;;;;;17.20;15.90;;;11.80;99.90;;;;;;5041941;28;20468;-68
2022/05/24 06:26:55;;;;;;;16.87;15.43;;;11.70;99.90;;;;;;5043594;28;20447;-67
2022/05/24 06:29:22;;;;;;;17.03;15.60;;;11.80;99.90;;;;;;5042710;28;20467;-67
2022/05/24 06:31:49;;;;;;;15.80;14.70;;;11.80;99.90;;;;;;5043684;28;20466;-68
2022/05/24 06:34:16;;;;;;;17.23;15.73;;;12.00;99.90;;;;;;5042390;28;20512;-68
2022/05/24 06:36:43;;;;;;;14.87;13.57;;;12.10;99.90;;;;;;5039804;28;21428;-68
2022/05/24 06:39:10;;;;;;;12.90;12.10;;;12.20;99.90;;;;;;5041009;28;20820;-70
2022/05/24 06:41:39;;;;;;;12.70;11.50;;;12.40;99.90;;;;;;5042234;28;20478;-68
2022/05/24 06:44:06;;;;;;;12.50;11.33;;;12.50;99.90;;;;;;5042268;28;20481;-68
2022/05/24 06:46:33;;;;;;;11.90;10.90;;;12.60;99.90;;;;;;5040444;28;20571;-68
2022/05/24 06:49:01;;;;;;;11.27;10.30;;;12.70;99.90;;;;;;5044468;28;20562;-67
2022/05/24 06:51:27;;;;;;;10.97;10.07;;;12.80;99.90;;;;;;5042945;28;20470;-67
2022/05/24 06:53:54;;;;;;;11.47;9.93;;;12.80;99.90;;;;;;5044756;28;21115;-69
2022/05/24 06:56:21;;;;;;;11.07;9.97;;;12.70;99.90;;;;;;5044956;28;21106;-69
2022/05/24 06:58:49;;;;;;;9.73;8.83;;;12.90;99.90;;;;;;5043943;28;21056;-68
2022/05/24 07:04:01;;;;;;;13.67;10.10;;;13.20;99.90;;;;;;5046053;28;20464;-69
2022/05/24 07:06:28;;;;;;;9.50;8.70;;;13.20;99.90;;;;;;5044343;28;21134;-66
2022/05/24 07:08:55;;;;;;;9.50;8.77;;;13.30;99.90;;;;;;5044367;28;20843;-67
2022/05/24 07:11:23;;;;;;;15.03;9.30;;;13.30;99.90;;;;;;5044165;28;20469;-66
2022/05/24 07:13:51;;;;;;;11.33;9.93;;;13.30;99.90;;;;;;5045788;28;20928;-68
2022/05/24 07:16:18;;;;;;;11.90;10.47;;;13.30;99.90;;;;;;5044591;28;20510;-67
2022/05/24 07:18:44;;;;;;;11.00;10.00;;;13.40;99.90;;;;;;5046395;28;20486;-67
2022/05/24 07:21:11;;;;;;;13.13;10.73;;;13.50;99.90;;;;;;5045353;28;20454;-68
2022/05/24 07:23:38;;;;;;;15.63;10.00;;;13.60;99.90;;;;;;5045446;28;20557;-67
2022/05/24 07:26:12;;;;;;;23.97;11.07;;;13.60;99.90;;;;;;5045773;28;20538;-67
2022/05/24 07:28:39;;;;;;;11.77;10.77;;;13.70;99.90;;;;;;5044802;28;20996;-67
2022/05/24 07:31:07;;;;;;;14.13;10.83;;;13.70;99.90;;;;;;5044588;28;20697;-68
2022/05/24 07:33:34;;;;;;;12.63;11.50;;;13.60;99.90;;;;;;5045918;28;20559;-69
2022/05/24 07:36:01;;;;;;;12.53;11.43;;;13.60;99.90;;;;;;5044445;28;20965;-67
2022/05/24 07:38:28;;;;;;;11.53;10.60;;;13.60;99.90;;;;;;5045069;28;20493;-66
2022/05/24 07:46:28;;;;;;;11.83;10.97;;;14.70;99.90;;;;;;5047282;28;20523;-65
2022/05/24 07:48:55;;;;;;;13.27;12.37;;;14.80;99.90;;;;;;5061339;28;20821;-67
2022/05/24 07:51:22;;;;;;;13.70;12.50;;;14.80;99.90;;;;;;5044996;28;20463;-66
2022/05/24 07:53:48;;;;;;;12.27;11.60;;;15.10;99.90;;;;;;5046637;28;20994;-67
2022/05/24 07:56:18;;;;;;;13.13;12.23;;;15.10;99.90;;;;;;5045559;28;20466;-66
2022/05/24 07:58:45;;;;;;;12.73;12.00;;;14.90;99.90;;;;;;5047117;28;21224;-67
2022/05/24 08:01:12;;;;;;;14.27;13.27;;;15.00;99.90;;;;;;5045407;28;20463;-67
2022/05/24 08:03:40;;;;;;;14.00;13.20;;;15.10;99.90;;;;;;5046689;28;21098;-66
2022/05/24 08:06:08;;;;;;;13.67;12.90;;;15.20;99.90;;;;;;5045711;28;20667;-66
2022/05/24 08:08:34;;;;;;;14.30;12.87;;;15.10;99.90;;;;;;5045556;28;20485;-67
2022/05/24 08:11:01;;;;;;;13.80;13.10;;;15.40;99.90;;;;;;5045673;28;20812;-67
2022/05/24 08:13:29;;;;;;;13.97;13.13;;;15.40;99.90;;;;;;5045990;28;20454;-67
2022/05/24 08:15:57;;;;;;;14.03;13.33;;;15.60;99.90;;;;;;5044164;28;20477;-67
2022/05/24 08:18:24;;;;;;;14.67;13.90;;;15.80;99.90;;;;;;5045017;28;21119;-66
2022/05/24 08:20:53;;;;;;;15.63;14.43;;;16.10;99.90;;;;;;5045247;28;20542;-66
2022/05/24 08:23:21;;;;;;;15.20;14.40;;;16.40;99.90;;;;;;5045011;28;20917;-67
2022/05/24 08:25:48;;;;;;;15.60;14.70;;;16.00;99.90;;;;;;5045409;28;20559;-67
2022/05/24 08:28:16;;;;;;;16.60;15.70;;;16.00;99.90;;;;;;5045441;28;20498;-67
2022/05/24 08:30:44;;;;;;;15.40;14.60;;;15.80;99.90;;;;;;5045445;28;20463;-66
2022/05/24 08:33:12;;;;;;;15.40;14.60;;;15.50;99.90;;;;;;5044539;28;20830;-67
2022/05/24 08:35:40;;;;;;;14.97;14.17;;;15.40;99.90;;;;;;5043622;28;21485;-68
2022/05/24 08:38:08;;;;;;;15.70;14.70;;;15.40;99.90;;;;;;5053428;28;20513;-66
2022/05/24 08:40:39;;;;;;;17.47;15.87;;;15.40;99.90;;;;;;5044794;28;20506;-67
2022/05/24 08:43:28;;;;;;;16.57;15.57;;;15.20;99.90;;;;;;5044749;28;20463;-67
2022/05/24 08:48:47;;;;;;;16.17;15.23;;;16.10;99.90;;;;;;5046170;28;20481;-68
2022/05/24 08:51:21;;;;;;;16.13;15.27;;;16.10;99.90;;;;;;5043670;28;20565;-68
2022/05/24 08:53:52;;;;;;;16.53;15.53;;;15.80;99.90;;;;;;5043592;28;20465;-67
2022/05/24 08:56:21;;;;;;;16.73;15.47;;;15.60;99.90;;;;;;5044040;28;20458;-68
2022/05/24 08:58:51;;;;;;;15.80;15.00;;;15.60;99.90;;;;;;5045431;28;20914;-65
2022/05/24 09:01:23;;;;;;;16.17;15.17;;;15.60;99.90;;;;;;5045036;28;20543;-67
2022/05/24 09:03:50;;;;;;;16.70;15.70;;;15.90;99.90;;;;;;5047131;28;21481;-70
2022/05/24 09:06:35;;;;;;;15.70;14.90;;;16.00;99.90;;;;;;5042142;28;20552;-66
2022/05/24 09:09:18;;;;;;;17.50;16.50;;;16.30;99.90;;;;;;5040484;28;20462;-67
2022/05/24 09:11:54;;;;;;;15.63;14.83;;;16.70;99.90;;;;;;5043660;28;20589;-67
2022/05/24 09:14:29;;;;;;;16.40;15.07;;;16.70;99.90;;;;;;5045624;28;20942;-68
2022/05/24 09:17:05;;;;;;;17.13;15.67;;;16.50;99.90;;;;;;5043816;28;20460;-67
2022/05/24 09:19:35;;;;;;;16.40;15.40;;;16.30;99.90;;;;;;5043529;28;20609;-68
2022/05/24 09:22:02;;;;;;;16.67;15.40;;;16.30;99.90;;;;;;5041391;28;20471;-68
2022/05/24 09:24:43;;;;;;;16.03;15.13;;;16.40;99.90;;;;;;5042937;28;20466;-68
2022/05/24 09:27:14;;;;;;;15.97;14.97;;;16.60;99.90;;;;;;5064018;28;21063;-68
2022/05/24 09:29:55;;;;;;;15.77;14.87;;;16.50;99.90;;;;;;5040828;28;20474;-68
2022/05/24 09:32:29;;;;;;;16.67;15.77;;;17.40;99.90;;;;;;5043191;28;20553;-69
2022/05/24 09:35:04;;;;;;;17.20;15.80;;;17.80;99.90;;;;;;5042096;28;20463;-68
2022/05/24 09:37:31;;;;;;;17.13;16.20;;;18.20;99.90;;;;;;5042861;28;20458;-68
2022/05/24 09:40:01;;;;;;;17.50;16.13;;;17.90;99.90;;;;;;5041809;28;20498;-67
2022/05/24 09:42:30;;;;;;;16.93;15.90;;;17.60;99.90;;;;;;5041616;28;20462;-69
2022/05/24 09:45:03;;;;;;;16.87;15.73;;;17.60;99.90;;;;;;5042821;28;20493;-67
2022/05/24 09:47:32;;;;;;;17.87;16.40;;;17.70;99.90;;;;;;5041727;28;20494;-68
2022/05/24 09:50:21;;;;;;;16.70;15.80;;;18.00;99.90;;;;;;5042859;28;20463;-67
2022/05/24 09:53:10;;;;;;;17.23;16.00;;;18.20;99.90;;;;;;5042946;28;20754;-68
2022/05/24 09:55:43;;;;;;;17.57;16.57;;;18.00;99.90;;;;;;5041908;28;21021;-67
2022/05/24 09:58:26;;;;;;;17.33;16.07;;;18.60;99.90;;;;;;5042279;28;21086;-67
2022/05/24 10:00:56;;;;;;;17.10;15.83;;;19.00;99.90;;;;;;5043193;28;20522;-67
2022/05/24 10:03:26;;;;;;;17.10;16.10;;;18.80;99.90;;;;;;5042138;28;20461;-67
2022/05/24 10:06:22;;;;;;;16.80;15.70;;;18.50;99.90;;;;;;5042655;28;20474;-69
2022/05/24 10:08:52;;;;;;;18.33;16.97;;;18.70;99.90;;;;;;5039647;28;20463;-68
2022/05/24 10:11:29;;;;;;;16.70;15.80;;;18.80;99.90;;;;;;5042338;28;20911;-67
2022/05/24 10:14:14;;;;;;;17.30;16.03;;;18.60;99.90;;;;;;5042308;28;20450;-67
2022/05/24 10:16:45;;;;;;;17.47;16.43;;;18.60;99.90;;;;;;5041884;28;20467;-67
2022/05/24 10:19:33;;;;;;;18.57;17.10;;;18.30;99.90;;;;;;5042472;28;20947;-68
2022/05/24 10:22:07;;;;;;;18.53;17.33;;;18.30;99.90;;;;;;5040765;28;20625;-68
2022/05/24 10:24:47;;;;;;;17.27;16.33;;;18.50;99.90;;;;;;5054400;28;20493;-67
2022/05/24 10:27:27;;;;;;;17.50;16.30;;;17.90;99.90;;;;;;5062828;28;20467;-67
2022/05/24 10:30:00;;;;;;;16.93;15.87;;;18.00;99.90;;;;;;5075071;28;20458;-67
2022/05/24 10:38:28;;;;;;;17.57;16.00;;;17.90;99.90;;;;;;5041698;28;20469;-67
2022/05/24 10:41:08;;;;;;;16.40;15.50;;;17.80;99.90;;;;;;5042253;28;20495;-68
2022/05/24 10:43:53;;;;;;;19.23;16.60;;;17.70;99.90;;;;;;5040971;28;21112;-67
2022/05/24 10:46:23;;;;;;;18.03;16.73;;;18.00;99.90;;;;;;5022578;28;20549;-67
2022/05/24 10:48:59;;;;;;;16.80;15.90;;;18.60;99.90;;;;;;5020895;28;20500;-67
2022/05/24 10:51:31;;;;;;;17.70;16.40;;;18.70;99.90;;;;;;5022436;28;21109;-67
2022/05/24 10:54:03;;;;;;;17.43;16.53;;;19.10;99.90;;;;;;5022381;28;20537;-68
2022/05/24 10:56:36;;;;;;;17.97;16.80;;;19.20;99.90;;;;;;5022290;28;20502;-68
2022/05/24 10:59:14;;;;;;;17.37;16.00;;;18.70;99.90;;;;;;5022285;28;21072;-68
2022/05/24 11:01:45;;;;;;;15.50;14.70;;;17.80;99.90;;;;;;5022766;28;20454;-68
2022/05/24 11:04:16;;;;;;;16.73;15.73;;;18.30;99.90;;;;;;5021081;28;20663;-69
2022/05/24 11:06:49;;;;;;;16.40;15.60;;;19.70;99.90;;;;;;5019958;28;21077;-66
2022/05/24 11:09:19;;;;;;;16.47;15.47;;;20.60;99.90;;;;;;5019675;28;20471;-68
2022/05/24 11:11:52;;;;;;;15.53;14.70;;;21.50;99.90;;;;;;5022995;28;20846;-67
2022/05/24 11:14:28;;;;;;;16.10;15.20;;;21.90;99.90;;;;;;5022056;28;20478;-68
2022/05/24 11:16:57;;;;;;;17.10;16.10;;;22.50;99.90;;;;;;5020210;28;20471;-67
2022/05/24 11:19:26;;;;;;;17.53;16.30;;;22.20;99.90;;;;;;5020948;28;20471;-67
2022/05/24 11:22:02;;;;;;;17.67;16.53;;;21.30;99.90;;;;;;5021757;28;20527;-69
2022/05/24 11:24:36;;;;;;;17.70;16.70;;;20.80;99.90;;;;;;5021892;28;20459;-68
2022/05/24 11:27:05;;;;;;;18.17;17.07;;;20.10;99.90;;;;;;5022523;28;20470;-67
2022/05/24 11:29:44;;;;;;;17.47;16.47;;;19.80;99.90;;;;;;5021179;28;20463;-67
2022/05/24 11:32:12;;;;;;;17.07;16.07;;;19.70;99.90;;;;;;5021864;28;20590;-68
2022/05/24 11:34:42;;;;;;;17.43;16.20;;;19.90;99.90;;;;;;5025771;28;20555;-68
2022/05/24 11:37:15;;;;;;;17.13;16.13;;;19.60;99.90;;;;;;5024223;28;20969;-68
2022/05/24 11:39:43;;;;;;;15.37;14.57;;;20.40;99.90;;;;;;5022307;28;20495;-68
2022/05/24 11:42:45;;;;;;;15.70;14.80;;;21.30;99.90;;;;;;5028823;28;20479;-68
2022/05/24 11:45:51;;;;;;;16.20;15.40;;;21.90;99.90;;;;;;5072805;28;20489;-67
2022/05/24 11:48:20;;;;;;;16.40;15.50;;;22.50;98.60;;;;;;4942890;28;20455;-68
2022/05/24 11:50:50;;;;;;;17.10;16.20;;;23.40;96.60;;;;;;5028396;28;20469;-69
2022/05/24 11:53:38;;;;;;;17.17;16.17;;;23.60;97.90;;;;;;5045370;28;21175;-68
2022/05/24 11:56:17;;;;;;;16.90;15.90;;;22.90;98.10;;;;;;5045152;28;20455;-68
2022/05/24 11:58:51;;;;;;;17.07;16.17;;;21.90;98.90;;;;;;5044231;28;20488;-68
2022/05/24 12:01:49;;;;;;;16.53;15.43;;;21.50;99.60;;;;;;5044762;28;20494;-68
2022/05/24 12:10:51;;;;;;;17.23;16.10;;;22.20;97.10;;;;;;5041446;28;20455;-69
2022/05/24 12:13:30;;;;;;;17.10;16.10;;;22.00;99.30;;;;;;5041246;28;20469;-69
2022/05/24 12:15:59;;;;;;;17.47;16.40;;;22.20;99.90;;;;;;5044601;28;20869;-68
2022/05/24 12:18:39;;;;;;;16.90;15.90;;;22.50;99.20;;;;;;5044537;28;20596;-70
2022/05/24 12:21:08;;;;;;;16.37;15.47;;;22.10;99.80;;;;;;5044178;28;20676;-70
2022/05/24 12:23:39;;;;;;;15.77;14.97;;;22.30;99.90;;;;;;5042733;28;20470;-68
2022/05/24 12:26:08;;;;;;;16.53;15.73;;;22.50;98.30;;;;;;5047959;28;20471;-70
2022/05/24 12:28:49;;;;;;;17.07;16.00;;;22.90;98.40;;;;;;5047586;28;20469;-70
2022/05/24 12:31:26;;;;;;;16.73;15.70;;;22.40;97.90;;;;;;5046712;28;20474;-69
2022/05/24 12:33:55;;;;;;;16.80;15.90;;;21.60;97.30;;;;;;5047201;28;20473;-68
2022/05/24 12:36:29;;;;;;;16.23;15.43;;;20.80;97.10;;;;;;5047391;28;20466;-69
2022/05/24 12:39:00;;;;;;;16.90;16.07;;;21.20;97.60;;;;;;5045826;28;20459;-69
2022/05/24 12:41:31;;;;;;;16.27;15.40;;;22.00;98.30;;;;;;5047797;28;21331;-69
2022/05/24 12:44:01;;;;;;;16.40;15.50;;;22.20;98.00;;;;;;5045052;28;20547;-70
2022/05/24 12:46:31;;;;;;;17.60;15.97;;;21.60;97.80;;;;;;5047305;28;20468;-69
2022/05/24 12:49:07;;;;;;;17.03;16.13;;;20.70;98.10;;;;;;5046694;28;21163;-69
2022/05/24 12:51:36;;;;;;;16.80;16.00;;;20.60;98.10;;;;;;5046923;28;20482;-68
2022/05/24 12:54:14;;;;;;;17.20;16.20;;;20.40;97.90;;;;;;5046733;28;22045;-68
2022/05/24 12:56:52;;;;;;;17.10;16.30;;;19.50;98.00;;;;;;5045738;28;20493;-68
2022/05/24 12:59:19;;;;;;;17.37;16.47;;;19.10;99.90;;;;;;5045632;28;20469;-68
2022/05/24 13:01:46;;;;;;;16.60;15.60;;;18.90;99.90;;;;;;5046471;28;20578;-68
2022/05/24 13:04:17;;;;;;;16.60;15.67;;;18.90;98.40;;;;;;5045888;28;20463;-69
2022/05/24 13:06:46;;;;;;;16.10;15.20;;;19.00;97.40;;;;;;5045574;28;20977;-68
2022/05/24 13:09:20;;;;;;;15.63;14.73;;;19.00;98.10;;;;;;5046057;28;20844;-68
2022/05/24 13:11:50;;;;;;;15.83;15.13;;;19.20;96.60;;;;;;5045989;28;20486;-71
2022/05/24 13:14:39;;;;;;;15.10;14.40;;;19.50;95.40;;;;;;5045446;28;20507;-70
2022/05/24 13:17:08;;;;;;;15.43;14.73;;;20.10;96.40;;;;;;5045819;28;21215;-69
2022/05/24 13:19:51;;;;;;;15.70;14.80;;;20.80;96.00;;;;;;5045407;28;20491;-68